createdAt,value
2017-05-05T00:00:57.548Z,64.15
2017-05-05T00:01:58.915Z,63.95
2017-05-05T00:03:00.288Z,64.63
2017-05-05T00:04:01.658Z,63.57
2017-05-05T00:05:03.035Z,64.18
2017-05-05T00:06:04.407Z,64.24
2017-05-05T00:07:05.776Z,64.72
2017-05-05T00:08:07.212Z,64.24
2017-05-05T00:09:08.572Z,64.24
2017-05-05T00:10:09.935Z,64.63
2017-05-05T00:11:11.304Z,64.34
2017-05-05T00:12:12.671Z,64.15
2017-05-05T00:13:14.064Z,64.53
2017-05-05T00:14:15.423Z,64.63
2017-05-05T00:15:16.795Z,64.15
2017-05-05T00:16:18.155Z,64.92
2017-05-05T00:17:19.523Z,64.43
2017-05-05T00:18:20.892Z,63.85
2017-05-05T00:19:22.254Z,64.34
2017-05-05T00:20:23.633Z,63.95
2017-05-05T00:21:24.994Z,63.95
2017-05-05T00:22:26.374Z,64.63
2017-05-05T00:23:27.784Z,63.95
2017-05-05T00:24:29.150Z,64.05
2017-05-05T00:25:30.518Z,64.43
2017-05-05T00:26:31.881Z,64.24
2017-05-05T00:27:33.269Z,64.72
2017-05-05T00:28:34.645Z,64.63
2017-05-05T00:29:36.019Z,64.72
2017-05-05T00:30:37.396Z,64.34
2017-05-05T00:31:38.771Z,64.15
2017-05-05T00:32:40.141Z,64.63
2017-05-05T00:33:41.506Z,64.05
2017-05-05T00:34:42.873Z,64.24
2017-05-05T00:35:44.257Z,64.63
2017-05-05T00:36:45.631Z,64.53
2017-05-05T00:37:46.997Z,64.15
2017-05-05T00:38:48.376Z,64.24
2017-05-05T00:39:49.734Z,64.82
2017-05-05T00:40:51.103Z,63.95
2017-05-05T00:41:52.483Z,64.05
2017-05-05T00:42:54.003Z,64.24
2017-05-05T00:43:55.374Z,64.53
2017-05-05T00:44:56.747Z,64.43
2017-05-05T00:45:58.121Z,64.43
2017-05-05T00:46:59.482Z,64.43
2017-05-05T00:48:00.842Z,64.34
2017-05-05T00:49:02.219Z,64.53
2017-05-05T00:50:03.660Z,64.63
2017-05-05T00:51:05.027Z,64.43
2017-05-05T00:52:06.391Z,64.63
2017-05-05T00:53:07.757Z,64.63
2017-05-05T00:54:09.120Z,64.53
2017-05-05T00:55:10.491Z,64.72
2017-05-05T00:56:11.861Z,64.53
2017-05-05T00:57:13.186Z,64.72
2017-05-05T00:58:14.557Z,64.43
2017-05-05T00:59:15.924Z,64.72
2017-05-05T01:00:17.284Z,64.63
2017-05-05T01:01:18.652Z,64.53
2017-05-05T01:02:20.013Z,64.43
2017-05-05T01:03:21.380Z,64.82
2017-05-05T01:04:22.750Z,65.20
2017-05-05T01:05:24.121Z,65.40
2017-05-05T01:06:25.516Z,64.53
2017-05-05T01:07:26.853Z,65.20
2017-05-05T01:08:28.221Z,64.53
2017-05-05T01:09:29.589Z,64.72
2017-05-05T01:10:30.955Z,65.01
2017-05-05T01:11:32.326Z,64.92
2017-05-05T01:12:33.710Z,64.53
2017-05-05T01:13:35.058Z,64.82
2017-05-05T01:14:36.425Z,64.43
2017-05-05T01:15:37.789Z,64.82
2017-05-05T01:16:39.151Z,64.63
2017-05-05T01:17:40.524Z,64.43
2017-05-05T01:18:41.892Z,64.43
2017-05-05T01:19:43.261Z,64.53
2017-05-05T01:20:44.623Z,64.63
2017-05-05T01:21:46.091Z,64.92
2017-05-05T01:22:47.487Z,64.53
2017-05-05T01:23:48.857Z,65.11
2017-05-05T01:24:50.223Z,64.34
2017-05-05T01:25:51.587Z,64.92
2017-05-05T01:26:52.953Z,64.72
2017-05-05T01:27:54.323Z,64.43
2017-05-05T01:28:55.685Z,64.43
2017-05-05T01:29:57.052Z,64.53
2017-05-05T01:30:58.418Z,64.82
2017-05-05T01:31:59.852Z,64.53
2017-05-05T01:33:01.217Z,64.63
2017-05-05T01:34:02.623Z,65.20
2017-05-05T01:35:03.989Z,64.34
2017-05-05T01:36:05.351Z,64.63
2017-05-05T01:37:06.721Z,64.43
2017-05-05T01:38:08.088Z,64.43
2017-05-05T01:39:09.459Z,64.53
2017-05-05T01:40:10.855Z,64.63
2017-05-05T01:41:12.224Z,64.43
2017-05-05T01:42:13.588Z,64.53
2017-05-05T01:43:14.950Z,64.72
2017-05-05T01:44:16.323Z,64.24
2017-05-05T01:45:17.755Z,64.53
2017-05-05T01:46:19.133Z,64.43
2017-05-05T01:47:20.511Z,64.53
2017-05-05T01:48:21.938Z,64.43
2017-05-05T01:49:23.312Z,64.63
2017-05-05T01:50:24.676Z,64.43
2017-05-05T01:51:26.039Z,64.43
2017-05-05T01:52:27.405Z,64.53
2017-05-05T01:53:28.781Z,65.01
2017-05-05T01:54:30.144Z,64.34
2017-05-05T01:55:31.512Z,64.72
2017-05-05T01:56:32.877Z,64.15
2017-05-05T01:57:34.250Z,64.34
2017-05-05T01:58:35.728Z,64.72
2017-05-05T01:59:37.096Z,64.43
2017-05-05T02:00:38.460Z,64.53
2017-05-05T02:01:39.825Z,64.24
2017-05-05T02:02:41.192Z,64.82
2017-05-05T02:03:42.562Z,64.72
2017-05-05T02:04:43.924Z,64.43
2017-05-05T02:05:45.291Z,64.34
2017-05-05T02:06:46.688Z,64.63
2017-05-05T02:07:48.055Z,64.72
2017-05-05T02:08:49.428Z,64.43
2017-05-05T02:09:50.789Z,64.63
2017-05-05T02:10:52.160Z,64.24
2017-05-05T02:11:53.523Z,64.34
2017-05-05T02:12:54.895Z,64.43
2017-05-05T02:13:56.279Z,64.05
2017-05-05T02:14:57.646Z,64.05
2017-05-05T02:15:59.012Z,64.43
2017-05-05T02:17:00.382Z,64.15
2017-05-05T02:18:01.747Z,63.85
2017-05-05T02:19:03.114Z,64.15
2017-05-05T02:20:04.478Z,64.43
2017-05-05T02:21:05.856Z,64.15
2017-05-05T02:22:07.224Z,63.95
2017-05-05T02:23:08.601Z,64.63
2017-05-05T02:24:09.968Z,64.15
2017-05-05T02:25:11.337Z,64.43
2017-05-05T02:26:12.710Z,63.85
2017-05-05T02:27:14.076Z,64.02
2017-05-05T02:28:15.442Z,63.85
2017-05-05T02:29:16.809Z,64.53
2017-05-05T02:30:18.197Z,63.95
2017-05-05T02:31:19.568Z,64.34
2017-05-05T02:32:20.935Z,64.05
2017-05-05T02:33:22.358Z,64.24
2017-05-05T02:34:23.718Z,64.34
2017-05-05T02:35:25.114Z,64.43
2017-05-05T02:36:26.476Z,64.21
2017-05-05T02:37:27.844Z,64.34
2017-05-05T02:38:29.235Z,64.11
2017-05-05T02:39:30.647Z,64.15
2017-05-05T02:40:32.013Z,64.15
2017-05-05T02:41:33.382Z,64.15
2017-05-05T02:42:34.738Z,64.15
2017-05-05T02:43:36.115Z,64.53
2017-05-05T02:44:37.521Z,64.24
2017-05-05T02:45:38.892Z,64.21
2017-05-05T02:46:40.256Z,64.34
2017-05-05T02:47:41.623Z,64.53
2017-05-05T02:48:43.005Z,64.21
2017-05-05T02:49:44.378Z,64.24
2017-05-05T02:50:45.746Z,64.05
2017-05-05T02:51:47.135Z,63.85
2017-05-05T02:52:48.485Z,63.57
2017-05-05T02:53:49.853Z,63.54
2017-05-05T02:54:51.217Z,64.40
2017-05-05T02:55:52.582Z,64.15
2017-05-05T02:56:53.951Z,64.05
2017-05-05T02:57:55.311Z,64.11
2017-05-05T02:58:56.690Z,63.57
2017-05-05T02:59:58.053Z,64.24
2017-05-05T03:00:59.415Z,63.92
2017-05-05T03:02:00.783Z,63.95
2017-05-05T03:03:02.149Z,64.15
2017-05-05T03:04:03.515Z,64.05
2017-05-05T03:05:04.884Z,64.40
2017-05-05T03:06:06.255Z,63.92
2017-05-05T03:07:07.619Z,64.15
2017-05-05T03:08:08.989Z,64.21
2017-05-05T03:09:10.360Z,64.11
2017-05-05T03:10:11.739Z,64.11
2017-05-05T03:11:13.083Z,64.11
2017-05-05T03:12:14.448Z,63.63
2017-05-05T03:13:15.820Z,64.15
2017-05-05T03:14:17.189Z,64.24
2017-05-05T03:15:18.551Z,63.73
2017-05-05T03:16:19.913Z,64.05
2017-05-05T03:17:21.284Z,63.92
2017-05-05T03:18:22.649Z,63.54
2017-05-05T03:19:24.020Z,63.54
2017-05-05T03:20:25.389Z,64.15
2017-05-05T03:21:26.762Z,63.73
2017-05-05T03:22:28.221Z,63.63
2017-05-05T03:23:29.582Z,64.11
2017-05-05T03:24:30.953Z,64.40
2017-05-05T03:25:32.318Z,64.11
2017-05-05T03:26:33.690Z,64.50
2017-05-05T03:27:35.059Z,64.02
2017-05-05T03:28:37.142Z,63.85
2017-05-05T03:29:38.508Z,63.82
2017-05-05T03:30:39.891Z,63.73
2017-05-05T03:31:41.262Z,63.54
2017-05-05T03:32:42.622Z,63.34
2017-05-05T03:33:43.987Z,64.21
2017-05-05T03:34:45.364Z,63.92
2017-05-05T03:35:46.737Z,64.43
2017-05-05T03:36:48.101Z,63.44
2017-05-05T03:37:49.467Z,63.63
2017-05-05T03:38:50.840Z,63.92
2017-05-05T03:39:52.193Z,63.82
2017-05-05T03:40:53.560Z,63.54
2017-05-05T03:41:54.940Z,63.54
2017-05-05T03:42:56.307Z,63.63
2017-05-05T03:43:57.669Z,64.11
2017-05-05T03:44:59.032Z,63.63
2017-05-05T03:46:00.400Z,64.21
2017-05-05T03:47:01.770Z,63.44
2017-05-05T03:48:03.138Z,63.63
2017-05-05T03:49:04.502Z,63.85
2017-05-05T03:50:05.873Z,63.92
2017-05-05T03:51:07.237Z,63.82
2017-05-05T03:52:08.602Z,63.57
2017-05-05T03:53:09.970Z,64.11
2017-05-05T03:54:11.341Z,64.31
2017-05-05T03:55:12.732Z,63.82
2017-05-05T03:56:14.106Z,63.63
2017-05-05T03:57:15.481Z,63.73
2017-05-05T03:58:16.856Z,63.24
2017-05-05T03:59:18.226Z,63.47
2017-05-05T04:00:19.591Z,63.82
2017-05-05T04:01:21.019Z,63.73
2017-05-05T04:02:22.389Z,63.54
2017-05-05T04:03:23.753Z,64.31
2017-05-05T04:04:25.138Z,63.24
2017-05-05T04:05:26.525Z,64.21
2017-05-05T04:06:27.891Z,63.63
2017-05-05T04:07:29.256Z,64.02
2017-05-05T04:08:30.754Z,63.73
2017-05-05T04:09:32.118Z,63.92
2017-05-05T04:10:33.485Z,64.21
2017-05-05T04:11:34.856Z,63.24
2017-05-05T04:12:36.219Z,63.73
2017-05-05T04:13:37.585Z,63.44
2017-05-05T04:14:38.981Z,64.21
2017-05-05T04:15:40.356Z,64.02
2017-05-05T04:16:41.738Z,64.02
2017-05-05T04:17:43.108Z,63.44
2017-05-05T04:18:44.479Z,63.54
2017-05-05T04:19:45.842Z,63.73
2017-05-05T04:20:47.296Z,62.86
2017-05-05T04:21:48.669Z,63.24
2017-05-05T04:22:50.040Z,63.34
2017-05-05T04:23:51.408Z,63.18
2017-05-05T04:24:52.777Z,63.47
2017-05-05T04:25:54.145Z,63.24
2017-05-05T04:26:55.515Z,63.24
2017-05-05T04:27:56.895Z,63.24
2017-05-05T04:28:58.258Z,63.37
2017-05-05T04:29:59.627Z,63.44
2017-05-05T04:31:00.995Z,63.06
2017-05-05T04:32:02.366Z,63.24
2017-05-05T04:33:03.746Z,63.44
2017-05-05T04:34:05.109Z,64.11
2017-05-05T04:35:06.477Z,63.09
2017-05-05T04:36:07.840Z,62.99
2017-05-05T04:37:09.211Z,63.24
2017-05-05T04:38:10.578Z,63.15
2017-05-05T04:39:11.943Z,62.96
2017-05-05T04:40:13.310Z,63.85
2017-05-05T04:41:14.675Z,63.85
2017-05-05T04:42:16.045Z,64.11
2017-05-05T04:43:17.408Z,63.06
2017-05-05T04:44:18.784Z,63.34
2017-05-05T04:45:20.164Z,63.15
2017-05-05T04:46:21.560Z,63.54
2017-05-05T04:47:22.934Z,63.44
2017-05-05T04:48:24.298Z,63.06
2017-05-05T04:49:25.665Z,62.99
2017-05-05T04:50:27.028Z,64.11
2017-05-05T04:51:28.394Z,63.54
2017-05-05T04:52:29.770Z,63.73
2017-05-05T04:53:31.153Z,62.96
2017-05-05T04:54:32.510Z,63.54
2017-05-05T04:55:33.884Z,62.86
2017-05-05T04:56:35.255Z,60.55
2017-05-05T04:57:36.622Z,60.55
2017-05-05T04:58:38.059Z,59.78
2017-05-05T04:59:39.427Z,59.55
2017-05-05T05:00:40.796Z,59.36
2017-05-05T05:01:42.162Z,59.07
2017-05-05T05:02:43.533Z,59.94
2017-05-05T05:03:44.920Z,59.45
2017-05-05T05:04:46.286Z,59.55
2017-05-05T05:05:47.656Z,58.78
2017-05-05T05:06:49.031Z,58.69
2017-05-05T05:07:50.429Z,58.69
2017-05-05T05:08:51.797Z,58.78
2017-05-05T05:09:53.165Z,58.69
2017-05-05T05:10:54.529Z,58.88
2017-05-05T05:11:55.916Z,58.40
2017-05-05T05:12:57.276Z,58.97
2017-05-05T05:13:58.647Z,58.59
2017-05-05T05:15:00.017Z,58.30
2017-05-05T05:16:01.412Z,57.82
2017-05-05T05:17:02.755Z,58.01
2017-05-05T05:18:04.127Z,58.11
2017-05-05T05:19:05.535Z,57.62
2017-05-05T05:20:06.901Z,57.24
2017-05-05T05:21:08.278Z,57.79
2017-05-05T05:22:09.652Z,56.82
2017-05-05T05:23:11.018Z,57.34
2017-05-05T05:24:13.346Z,57.12
2017-05-05T05:25:14.712Z,57.60
2017-05-05T05:26:16.079Z,57.12
2017-05-05T05:27:17.449Z,57.24
2017-05-05T05:28:18.842Z,57.14
2017-05-05T05:29:20.216Z,56.82
2017-05-05T05:30:21.583Z,56.82
2017-05-05T05:31:22.948Z,56.73
2017-05-05T05:32:24.316Z,56.95
2017-05-05T05:33:25.685Z,56.63
2017-05-05T05:34:27.053Z,56.66
2017-05-05T05:35:28.422Z,56.44
2017-05-05T05:36:29.802Z,56.35
2017-05-05T05:37:31.193Z,56.54
2017-05-05T05:38:33.507Z,56.25
2017-05-05T05:39:35.398Z,56.44
2017-05-05T05:40:36.762Z,56.37
2017-05-05T05:41:38.137Z,56.44
2017-05-05T05:42:39.509Z,56.15
2017-05-05T05:43:40.876Z,56.35
2017-05-05T05:44:42.249Z,56.63
2017-05-05T05:45:43.613Z,56.63
2017-05-05T05:46:44.983Z,56.25
2017-05-05T05:47:46.350Z,56.63
2017-05-05T05:48:47.724Z,55.96
2017-05-05T05:49:49.090Z,55.77
2017-05-05T05:50:50.490Z,56.15
2017-05-05T05:51:51.915Z,56.05
2017-05-05T05:52:53.272Z,56.35
2017-05-05T05:53:54.646Z,56.35
2017-05-05T05:54:56.018Z,55.96
2017-05-05T05:55:57.390Z,55.77
2017-05-05T05:56:58.761Z,55.29
2017-05-05T05:58:00.152Z,55.48
2017-05-05T05:59:01.519Z,55.38
2017-05-05T06:00:03.025Z,55.09
2017-05-05T06:01:04.396Z,55.48
2017-05-05T06:02:05.769Z,55.29
2017-05-05T06:03:07.130Z,55.29
2017-05-05T06:04:08.508Z,55.00
2017-05-05T06:05:09.924Z,54.71
2017-05-05T06:06:11.324Z,55.00
2017-05-05T06:07:12.690Z,55.38
2017-05-05T06:08:14.057Z,54.80
2017-05-05T06:09:15.423Z,55.00
2017-05-05T06:10:16.839Z,55.29
2017-05-05T06:11:18.206Z,54.90
2017-05-05T06:12:19.583Z,54.90
2017-05-05T06:13:20.966Z,54.90
2017-05-05T06:14:22.341Z,55.00
2017-05-05T06:15:23.714Z,54.90
2017-05-05T06:16:25.082Z,54.90
2017-05-05T06:17:26.468Z,54.80
2017-05-05T06:18:27.854Z,54.80
2017-05-05T06:19:29.229Z,55.09
2017-05-05T06:20:30.592Z,54.42
2017-05-05T06:21:31.969Z,54.80
2017-05-05T06:22:33.334Z,54.32
2017-05-05T06:23:34.699Z,55.00
2017-05-05T06:24:36.080Z,54.80
2017-05-05T06:25:37.447Z,54.90
2017-05-05T06:26:38.819Z,54.71
2017-05-05T06:27:40.191Z,54.80
2017-05-05T06:28:41.553Z,54.61
2017-05-05T06:29:43.669Z,54.52
2017-05-05T06:30:44.250Z,54.16
2017-05-05T06:31:45.624Z,54.13
2017-05-05T06:32:46.988Z,54.13
2017-05-05T06:33:48.418Z,54.13
2017-05-05T06:34:49.845Z,54.32
2017-05-05T06:35:51.277Z,54.42
2017-05-05T06:36:52.645Z,54.22
2017-05-05T06:37:54.016Z,54.03
2017-05-05T06:38:55.417Z,54.13
2017-05-05T06:39:56.798Z,53.94
2017-05-05T06:40:58.167Z,53.94
2017-05-05T06:41:59.543Z,53.94
2017-05-05T06:43:00.914Z,54.03
2017-05-05T06:44:02.281Z,54.13
2017-05-05T06:45:03.639Z,54.32
2017-05-05T06:46:05.018Z,53.74
2017-05-05T06:47:06.388Z,53.84
2017-05-05T06:48:07.763Z,53.94
2017-05-05T06:49:09.130Z,54.13
2017-05-05T06:50:10.500Z,53.74
2017-05-05T06:51:11.869Z,53.07
2017-05-05T06:52:13.296Z,53.74
2017-05-05T06:53:14.667Z,53.17
2017-05-05T06:54:16.042Z,54.13
2017-05-05T06:55:17.415Z,55.09
2017-05-05T06:56:18.783Z,55.38
2017-05-05T06:57:20.155Z,55.41
2017-05-05T06:58:21.521Z,54.93
2017-05-05T06:59:22.883Z,54.83
2017-05-05T07:00:24.274Z,55.51
2017-05-05T07:01:25.657Z,55.31
2017-05-05T07:02:27.063Z,55.41
2017-05-05T07:03:28.433Z,55.41
2017-05-05T07:04:29.804Z,55.51
2017-05-05T07:05:31.177Z,55.12
2017-05-05T07:06:32.567Z,55.70
2017-05-05T07:07:33.950Z,56.18
2017-05-05T07:08:35.328Z,56.18
2017-05-05T07:09:36.710Z,55.89
2017-05-05T07:10:38.074Z,55.99
2017-05-05T07:11:39.480Z,55.89
2017-05-05T07:12:40.851Z,56.09
2017-05-05T07:13:42.228Z,56.09
2017-05-05T07:14:43.593Z,56.37
2017-05-05T07:15:44.969Z,56.30
2017-05-05T07:16:46.347Z,56.27
2017-05-05T07:17:47.725Z,56.21
2017-05-05T07:18:49.134Z,56.30
2017-05-05T07:19:50.505Z,56.11
2017-05-05T07:20:51.875Z,56.49
2017-05-05T07:21:54.142Z,56.40
2017-05-05T07:22:55.506Z,56.40
2017-05-05T07:23:56.883Z,56.40
2017-05-05T07:24:58.246Z,56.59
2017-05-05T07:25:59.631Z,56.59
2017-05-05T07:27:01.637Z,56.88
2017-05-05T07:28:03.006Z,56.79
2017-05-05T07:29:04.383Z,56.40
2017-05-05T07:30:05.777Z,56.49
2017-05-05T07:31:07.219Z,56.98
2017-05-05T07:32:08.592Z,57.07
2017-05-05T07:33:09.958Z,57.37
2017-05-05T07:34:11.338Z,56.88
2017-05-05T07:35:12.702Z,56.69
2017-05-05T07:36:14.069Z,56.30
2017-05-05T07:37:15.443Z,56.40
2017-05-05T07:38:16.818Z,57.17
2017-05-05T07:39:18.189Z,56.69
2017-05-05T07:40:19.577Z,56.49
2017-05-05T07:41:20.941Z,56.79
2017-05-05T07:42:22.317Z,56.88
2017-05-05T07:43:23.685Z,56.98
2017-05-05T07:44:25.061Z,56.69
2017-05-05T07:45:26.437Z,56.69
2017-05-05T07:46:27.805Z,56.98
2017-05-05T07:47:29.172Z,56.79
2017-05-05T07:48:30.557Z,57.07
2017-05-05T07:49:31.948Z,56.98
2017-05-05T07:50:33.324Z,57.27
2017-05-05T07:51:34.718Z,56.79
2017-05-05T07:52:36.108Z,57.37
2017-05-05T07:53:37.465Z,57.37
2017-05-05T07:54:38.841Z,57.37
2017-05-05T07:55:40.219Z,57.07
2017-05-05T07:56:41.589Z,56.98
2017-05-05T07:57:42.963Z,57.46
2017-05-05T07:58:44.350Z,57.46
2017-05-05T07:59:45.721Z,57.65
2017-05-05T08:00:47.096Z,56.98
2017-05-05T08:01:48.456Z,57.59
2017-05-05T08:02:49.842Z,56.91
2017-05-05T08:03:51.234Z,57.07
2017-05-05T08:04:52.604Z,57.56
2017-05-05T08:05:53.991Z,57.39
2017-05-05T08:06:55.365Z,57.49
2017-05-05T08:07:56.886Z,57.49
2017-05-05T08:08:58.253Z,57.17
2017-05-05T08:09:59.621Z,57.65
2017-05-05T08:11:00.988Z,57.37
2017-05-05T08:12:02.367Z,57.46
2017-05-05T08:13:03.735Z,57.49
2017-05-05T08:14:05.149Z,56.91
2017-05-05T08:15:06.534Z,57.29
2017-05-05T08:16:07.901Z,57.10
2017-05-05T08:17:10.116Z,57.29
2017-05-05T08:18:11.517Z,57.49
2017-05-05T08:19:12.898Z,57.37
2017-05-05T08:20:14.269Z,57.29
2017-05-05T08:21:15.638Z,57.78
2017-05-05T08:22:17.014Z,57.49
2017-05-05T08:23:18.379Z,57.27
2017-05-05T08:24:19.747Z,57.29
2017-05-05T08:25:21.127Z,57.68
2017-05-05T08:26:22.496Z,57.78
2017-05-05T08:27:23.914Z,57.87
2017-05-05T08:28:25.290Z,57.68
2017-05-05T08:29:26.672Z,57.87
2017-05-05T08:30:28.078Z,57.78
2017-05-05T08:31:29.445Z,57.87
2017-05-05T08:32:30.835Z,57.87
2017-05-05T08:33:32.209Z,57.97
2017-05-05T08:34:33.574Z,57.49
2017-05-05T08:35:34.978Z,57.68
2017-05-05T08:36:36.350Z,57.97
2017-05-05T08:37:37.722Z,57.87
2017-05-05T08:38:39.133Z,57.68
2017-05-05T08:39:40.654Z,57.94
2017-05-05T08:40:42.017Z,57.87
2017-05-05T08:41:43.388Z,57.87
2017-05-05T08:42:44.758Z,57.87
2017-05-05T08:43:46.168Z,57.87
2017-05-05T08:44:47.601Z,57.85
2017-05-05T08:45:49.023Z,57.97
2017-05-05T08:46:50.413Z,57.87
2017-05-05T08:47:51.786Z,58.26
2017-05-05T08:48:53.161Z,57.97
2017-05-05T08:49:54.532Z,58.26
2017-05-05T08:50:55.916Z,58.17
2017-05-05T08:51:57.291Z,58.07
2017-05-05T08:52:58.654Z,57.97
2017-05-05T08:54:00.031Z,58.26
2017-05-05T08:55:01.466Z,57.97
2017-05-05T08:56:02.929Z,58.26
2017-05-05T08:57:04.314Z,58.07
2017-05-05T08:58:05.703Z,57.97
2017-05-05T08:59:07.070Z,57.97
2017-05-05T09:00:08.439Z,58.45
2017-05-05T09:01:09.824Z,57.97
2017-05-05T09:02:11.186Z,57.59
2017-05-05T09:03:13.363Z,58.07
2017-05-05T09:04:14.732Z,58.36
2017-05-05T09:05:16.175Z,57.59
2017-05-05T09:06:17.533Z,57.59
2017-05-05T09:07:18.912Z,57.78
2017-05-05T09:08:20.324Z,57.68
2017-05-05T09:09:21.706Z,57.78
2017-05-05T09:10:23.074Z,58.26
2017-05-05T09:11:24.472Z,58.17
2017-05-05T09:12:25.886Z,58.07
2017-05-05T09:13:27.263Z,57.78
2017-05-05T09:14:28.625Z,57.78
2017-05-05T09:15:29.997Z,57.97
2017-05-05T09:16:31.392Z,58.45
2017-05-05T09:17:32.819Z,57.49
2017-05-05T09:18:34.187Z,58.26
2017-05-05T09:19:35.553Z,57.59
2017-05-05T09:20:36.934Z,57.97
2017-05-05T09:21:38.314Z,57.78
2017-05-05T09:22:39.745Z,57.29
2017-05-05T09:23:41.164Z,57.49
2017-05-05T09:24:42.533Z,57.87
2017-05-05T09:25:43.895Z,57.78
2017-05-05T09:26:45.279Z,57.87
2017-05-05T09:27:46.645Z,57.87
2017-05-05T09:28:48.016Z,57.68
2017-05-05T09:29:49.380Z,57.59
2017-05-05T09:30:50.755Z,57.87
2017-05-05T09:31:52.131Z,57.68
2017-05-05T09:32:53.498Z,57.87
2017-05-05T09:33:54.888Z,57.87
2017-05-05T09:34:56.269Z,57.87
2017-05-05T09:35:57.651Z,57.68
2017-05-05T09:36:59.045Z,57.78
2017-05-05T09:38:00.446Z,57.68
2017-05-05T09:39:01.814Z,57.59
2017-05-05T09:40:03.195Z,57.87
2017-05-05T09:41:04.725Z,57.78
2017-05-05T09:42:06.119Z,57.78
2017-05-05T09:43:07.500Z,57.78
2017-05-05T09:44:08.874Z,57.78
2017-05-05T09:45:10.276Z,57.78
2017-05-05T09:46:11.631Z,57.78
2017-05-05T09:47:12.993Z,57.97
2017-05-05T09:48:14.356Z,57.68
2017-05-05T09:49:15.725Z,57.87
2017-05-05T09:50:17.095Z,57.49
2017-05-05T09:51:18.476Z,57.59
2017-05-05T09:52:19.868Z,57.97
2017-05-05T09:53:21.254Z,58.07
2017-05-05T09:54:22.635Z,58.26
2017-05-05T09:55:24.109Z,58.17
2017-05-05T09:56:25.497Z,57.87
2017-05-05T09:57:26.867Z,58.17
2017-05-05T09:58:28.235Z,57.87
2017-05-05T09:59:29.603Z,58.36
2017-05-05T10:00:31.002Z,57.87
2017-05-05T10:01:32.424Z,58.26
2017-05-05T10:02:33.795Z,57.87
2017-05-05T10:03:35.169Z,58.26
2017-05-05T10:04:36.566Z,58.36
2017-05-05T10:05:37.930Z,58.26
2017-05-05T10:06:39.308Z,58.36
2017-05-05T10:07:40.701Z,58.26
2017-05-05T10:08:42.077Z,58.36
2017-05-05T10:09:43.479Z,58.26
2017-05-05T10:10:44.852Z,58.26
2017-05-05T10:11:46.295Z,57.87
2017-05-05T10:12:47.668Z,57.97
2017-05-05T10:13:49.071Z,58.07
2017-05-05T10:14:50.447Z,57.87
2017-05-05T10:15:51.831Z,58.36
2017-05-05T10:16:53.207Z,58.07
2017-05-05T10:17:54.606Z,57.97
2017-05-05T10:18:55.996Z,57.87
2017-05-05T10:19:57.363Z,58.07
2017-05-05T10:20:58.748Z,58.07
2017-05-05T10:22:00.144Z,57.97
2017-05-05T10:23:01.530Z,58.36
2017-05-05T10:24:02.900Z,58.36
2017-05-05T10:25:04.279Z,57.87
2017-05-05T10:26:05.641Z,57.87
2017-05-05T10:27:07.008Z,58.00
2017-05-05T10:28:08.383Z,57.71
2017-05-05T10:29:09.758Z,57.90
2017-05-05T10:30:11.152Z,57.71
2017-05-05T10:31:12.528Z,57.81
2017-05-05T10:32:13.895Z,57.71
2017-05-05T10:33:15.263Z,57.52
2017-05-05T10:34:16.637Z,57.90
2017-05-05T10:35:18.016Z,57.90
2017-05-05T10:36:19.399Z,57.90
2017-05-05T10:37:20.763Z,57.32
2017-05-05T10:38:22.162Z,58.00
2017-05-05T10:39:23.537Z,57.32
2017-05-05T10:40:24.905Z,57.14
2017-05-05T10:41:26.283Z,57.42
2017-05-05T10:42:27.662Z,57.23
2017-05-05T10:43:29.036Z,57.23
2017-05-05T10:44:30.416Z,57.52
2017-05-05T10:45:31.795Z,57.52
2017-05-05T10:46:33.162Z,57.71
2017-05-05T10:47:34.539Z,57.23
2017-05-05T10:48:35.917Z,57.52
2017-05-05T10:49:37.289Z,57.42
2017-05-05T10:50:38.666Z,57.45
2017-05-05T10:51:40.038Z,57.42
2017-05-05T10:52:41.409Z,57.54
2017-05-05T10:53:42.789Z,57.35
2017-05-05T10:54:44.172Z,57.35
2017-05-05T10:55:45.547Z,57.52
2017-05-05T10:56:46.919Z,56.96
2017-05-05T10:57:48.292Z,57.32
2017-05-05T10:58:49.659Z,57.52
2017-05-05T10:59:51.044Z,57.52
2017-05-05T11:00:52.428Z,57.52
2017-05-05T11:01:53.799Z,57.52
2017-05-05T11:02:55.173Z,57.71
2017-05-05T11:03:56.559Z,58.03
2017-05-05T11:04:57.975Z,58.03
2017-05-05T11:05:59.346Z,57.64
2017-05-05T11:07:00.742Z,57.45
2017-05-05T11:08:02.127Z,57.93
2017-05-05T11:09:03.487Z,57.54
2017-05-05T11:10:04.868Z,58.03
2017-05-05T11:11:06.247Z,58.42
2017-05-05T11:12:07.657Z,58.29
2017-05-05T11:13:09.025Z,57.84
2017-05-05T11:14:10.401Z,58.22
2017-05-05T11:15:11.770Z,58.39
2017-05-05T11:16:13.145Z,57.93
2017-05-05T11:17:14.544Z,58.22
2017-05-05T11:18:15.905Z,58.12
2017-05-05T11:19:17.297Z,58.12
2017-05-05T11:20:18.669Z,58.42
2017-05-05T11:21:20.058Z,58.22
2017-05-05T11:22:21.428Z,58.32
2017-05-05T11:23:22.806Z,58.22
2017-05-05T11:24:24.170Z,58.42
2017-05-05T11:25:25.553Z,58.51
2017-05-05T11:26:26.919Z,58.42
2017-05-05T11:27:28.334Z,58.70
2017-05-05T11:28:29.704Z,58.32
2017-05-05T11:29:31.111Z,58.12
2017-05-05T11:30:32.492Z,58.32
2017-05-05T11:31:33.865Z,58.90
2017-05-05T11:32:35.239Z,58.83
2017-05-05T11:33:36.620Z,58.73
2017-05-05T11:34:38.009Z,58.25
2017-05-05T11:35:39.385Z,59.02
2017-05-05T11:36:40.761Z,58.45
2017-05-05T11:37:42.122Z,58.93
2017-05-05T11:38:43.504Z,58.25
2017-05-05T11:39:45.002Z,58.51
2017-05-05T11:40:46.368Z,58.35
2017-05-05T11:41:48.333Z,58.25
2017-05-05T11:42:49.700Z,58.42
2017-05-05T11:43:51.071Z,58.64
2017-05-05T11:44:52.437Z,58.25
2017-05-05T11:45:53.803Z,57.96
2017-05-05T11:46:55.185Z,58.25
2017-05-05T11:47:56.583Z,57.96
2017-05-05T11:48:57.948Z,58.25
2017-05-05T11:49:59.320Z,58.06
2017-05-05T11:51:00.695Z,58.35
2017-05-05T11:52:02.062Z,57.57
2017-05-05T11:53:04.066Z,57.96
2017-05-05T11:54:05.456Z,57.57
2017-05-05T11:55:06.825Z,57.09
2017-05-05T11:56:08.190Z,57.38
2017-05-05T11:57:09.574Z,57.77
2017-05-05T11:58:10.940Z,57.29
2017-05-05T11:59:12.311Z,57.19
2017-05-05T12:00:13.697Z,56.71
2017-05-05T12:01:15.066Z,56.80
2017-05-05T12:02:16.458Z,56.71
2017-05-05T12:03:17.831Z,56.80
2017-05-05T12:04:19.202Z,56.80
2017-05-05T12:05:20.580Z,56.71
2017-05-05T12:06:21.942Z,56.99
2017-05-05T12:07:23.321Z,56.99
2017-05-05T12:08:24.692Z,56.22
2017-05-05T12:09:26.074Z,56.80
2017-05-05T12:10:27.444Z,56.51
2017-05-05T12:11:28.882Z,56.80
2017-05-05T12:12:30.278Z,56.22
2017-05-05T12:13:31.642Z,56.32
2017-05-05T12:14:33.029Z,56.32
2017-05-05T12:15:34.405Z,56.48
2017-05-05T12:16:35.778Z,56.71
2017-05-05T12:17:37.147Z,56.51
2017-05-05T12:18:38.519Z,56.29
2017-05-05T12:19:39.888Z,56.68
2017-05-05T12:20:41.254Z,56.22
2017-05-05T12:21:42.632Z,56.68
2017-05-05T12:22:43.990Z,56.32
2017-05-05T12:23:45.382Z,56.32
2017-05-05T12:24:46.754Z,56.51
2017-05-05T12:25:48.121Z,56.29
2017-05-05T12:26:49.487Z,56.80
2017-05-05T12:27:50.900Z,56.39
2017-05-05T12:28:52.270Z,56.80
2017-05-05T12:29:54.582Z,56.90
2017-05-05T12:30:55.972Z,57.09
2017-05-05T12:31:57.352Z,56.99
2017-05-05T12:32:58.735Z,56.58
2017-05-05T12:34:00.107Z,56.61
2017-05-05T12:35:01.561Z,56.80
2017-05-05T12:36:02.924Z,56.96
2017-05-05T12:37:04.302Z,57.09
2017-05-05T12:38:05.667Z,56.29
2017-05-05T12:39:07.054Z,57.09
2017-05-05T12:40:08.419Z,56.61
2017-05-05T12:41:09.793Z,56.90
2017-05-05T12:42:11.188Z,56.80
2017-05-05T12:43:12.562Z,57.09
2017-05-05T12:44:13.932Z,57.06
2017-05-05T12:45:15.316Z,57.16
2017-05-05T12:46:16.689Z,56.80
2017-05-05T12:47:18.066Z,56.68
2017-05-05T12:48:19.502Z,56.68
2017-05-05T12:49:20.873Z,56.61
2017-05-05T12:50:22.242Z,57.19
2017-05-05T12:51:23.698Z,56.96
2017-05-05T12:52:25.073Z,57.26
2017-05-05T12:53:26.486Z,57.35
2017-05-05T12:54:27.862Z,57.54
2017-05-05T12:55:29.238Z,57.54
2017-05-05T12:56:30.608Z,57.64
2017-05-05T12:57:31.989Z,57.06
2017-05-05T12:58:33.351Z,57.45
2017-05-05T12:59:34.726Z,57.35
2017-05-05T13:00:36.100Z,57.74
2017-05-05T13:01:37.468Z,58.03
2017-05-05T13:02:38.845Z,57.93
2017-05-05T13:03:40.231Z,57.93
2017-05-05T13:04:41.640Z,57.84
2017-05-05T13:05:43.005Z,57.74
2017-05-05T13:06:44.378Z,57.74
2017-05-05T13:07:45.750Z,57.93
2017-05-05T13:08:47.123Z,57.74
2017-05-05T13:09:48.497Z,58.32
2017-05-05T13:10:49.867Z,57.93